createdAt,value
2022-07-28T00:01:38.228Z,4.03
2022-07-28T00:04:05.531Z,2.92
2022-07-28T00:06:32.622Z,3.53
2022-07-28T00:08:59.809Z,2.70
2022-07-28T00:11:27.037Z,2.28
2022-07-28T00:13:54.133Z,2.95
2022-07-28T00:16:21.368Z,3.15
2022-07-28T00:18:48.498Z,3.40
2022-07-28T00:21:15.632Z,3.10
2022-07-28T00:23:42.771Z,3.10
2022-07-28T00:26:11.843Z,2.72
2022-07-28T00:28:39.251Z,3.05
2022-07-28T00:31:07.646Z,3.00
2022-07-28T00:33:35.792Z,3.95
2022-07-28T00:36:03.798Z,2.92
2022-07-28T00:38:31.027Z,3.03
2022-07-28T00:41:13.516Z,3.17
2022-07-28T00:43:41.670Z,4.70
2022-07-28T00:46:09.791Z,4.00
2022-07-28T00:48:41.283Z,4.30
2022-07-28T00:51:09.714Z,4.57
2022-07-28T00:53:37.861Z,2.22
2022-07-28T00:56:06.665Z,4.35
2022-07-28T00:58:34.307Z,2.67
2022-07-28T01:01:01.416Z,4.90
2022-07-28T01:03:29.895Z,3.10
2022-07-28T01:05:59.821Z,2.53
2022-07-28T01:08:41.783Z,2.85
2022-07-28T01:11:12.098Z,2.75
2022-07-28T01:13:59.430Z,3.50
2022-07-28T01:16:27.492Z,3.55
2022-07-28T01:19:02.418Z,4.20
2022-07-28T01:24:16.161Z,2.95
2022-07-28T01:26:51.176Z,3.67
2022-07-28T01:29:21.144Z,2.88
2022-07-28T01:31:51.492Z,1.98
2022-07-28T01:34:20.742Z,2.95
2022-07-28T01:36:52.881Z,2.92
2022-07-28T01:39:20.555Z,2.28
2022-07-28T01:41:48.582Z,2.30
2022-07-28T01:44:17.409Z,3.05
2022-07-28T01:46:46.099Z,2.80
2022-07-28T01:49:14.683Z,3.00
2022-07-28T01:51:42.061Z,3.05
2022-07-28T01:54:09.777Z,3.05
2022-07-28T01:56:37.647Z,2.85
2022-07-28T01:59:06.513Z,2.30
2022-07-28T02:01:43.978Z,4.15
2022-07-28T02:04:11.999Z,2.40
2022-07-28T02:06:40.607Z,2.03
2022-07-28T02:09:08.461Z,2.28
2022-07-28T02:11:42.547Z,3.03
2022-07-28T02:14:11.579Z,3.22
2022-07-28T02:16:41.661Z,3.47
2022-07-28T02:19:09.576Z,4.22
2022-07-28T02:21:37.379Z,3.17
2022-07-28T02:24:05.107Z,3.80
2022-07-28T02:26:35.055Z,3.30
2022-07-28T02:29:03.231Z,2.58
2022-07-28T02:31:32.724Z,3.38
2022-07-28T02:34:12.694Z,3.90
2022-07-28T02:36:41.824Z,3.10
2022-07-28T02:39:11.747Z,2.05
2022-07-28T02:41:40.384Z,2.70
2022-07-28T02:44:13.247Z,6.03
2022-07-28T02:46:43.247Z,2.83
2022-07-28T02:49:13.153Z,4.13
2022-07-28T02:51:41.479Z,2.28
2022-07-28T02:54:09.135Z,3.30
2022-07-28T02:56:36.595Z,3.08
2022-07-28T02:59:04.090Z,4.22
2022-07-28T03:01:31.769Z,1.83
2022-07-28T03:03:59.493Z,2.92
2022-07-28T03:06:28.799Z,3.95
2022-07-28T03:08:57.195Z,3.67
2022-07-28T03:11:24.708Z,3.40
2022-07-28T03:13:52.733Z,3.10
2022-07-28T03:16:19.951Z,2.92
2022-07-28T03:18:47.210Z,3.83
2022-07-28T03:21:14.356Z,2.97
2022-07-28T03:23:42.966Z,2.05
2022-07-28T03:26:24.138Z,4.07
2022-07-28T03:28:52.427Z,4.22
2022-07-28T03:31:21.134Z,2.50
2022-07-28T03:36:17.460Z,2.25
2022-07-28T03:38:49.197Z,2.30
2022-07-28T03:41:17.793Z,3.25
2022-07-28T03:43:45.550Z,2.08
2022-07-28T03:46:13.703Z,2.90
2022-07-28T03:48:41.160Z,3.30
2022-07-28T03:51:08.374Z,4.68
2022-07-28T03:53:35.578Z,2.13
2022-07-28T03:56:03.393Z,2.67
2022-07-28T03:58:31.189Z,4.15
2022-07-28T04:00:58.623Z,2.72
2022-07-28T04:03:36.908Z,2.55
2022-07-28T04:06:10.795Z,4.22
2022-07-28T04:08:37.906Z,2.60
2022-07-28T04:11:05.122Z,2.13
2022-07-28T04:13:32.357Z,3.28
2022-07-28T04:16:00.279Z,3.42
2022-07-28T04:18:27.444Z,2.28
2022-07-28T04:20:55.742Z,4.32
2022-07-28T04:23:24.164Z,2.40
2022-07-28T04:25:51.272Z,2.28
2022-07-28T04:28:18.401Z,2.45
2022-07-28T04:30:45.990Z,2.97
2022-07-28T04:33:13.872Z,2.92
2022-07-28T04:35:41.173Z,3.45
2022-07-28T04:38:08.457Z,2.80
2022-07-28T04:40:35.696Z,4.03
2022-07-28T04:43:03.927Z,3.50
2022-07-28T04:45:31.314Z,2.83
2022-07-28T04:47:58.686Z,3.13
2022-07-28T04:50:25.906Z,2.53
2022-07-28T04:52:53.171Z,3.55
2022-07-28T04:55:20.329Z,3.13
2022-07-28T04:57:48.252Z,2.95
2022-07-28T05:00:15.722Z,2.40
2022-07-28T05:02:44.191Z,4.40
2022-07-28T05:05:11.637Z,2.58
2022-07-28T05:07:39.150Z,3.15
2022-07-28T05:10:06.998Z,2.42
2022-07-28T05:12:34.208Z,3.08
2022-07-28T05:15:01.335Z,2.47
2022-07-28T05:17:28.524Z,3.28
2022-07-28T05:19:55.666Z,3.33
2022-07-28T05:22:22.816Z,3.08
2022-07-28T05:24:49.979Z,2.97
2022-07-28T05:27:18.235Z,2.72
2022-07-28T05:29:47.741Z,2.50
2022-07-28T05:32:17.518Z,3.22
2022-07-28T05:34:45.548Z,2.45
2022-07-28T05:37:12.693Z,4.45
2022-07-28T05:39:39.826Z,2.63
2022-07-28T05:42:07.275Z,2.60
2022-07-28T05:44:38.226Z,4.07
2022-07-28T05:47:05.649Z,3.30
2022-07-28T05:49:33.176Z,3.05
2022-07-28T05:52:00.421Z,3.33
2022-07-28T05:54:28.197Z,3.00
2022-07-28T05:56:55.376Z,2.83
2022-07-28T05:59:22.550Z,5.95
2022-07-28T06:01:49.740Z,5.65
2022-07-28T06:04:26.987Z,4.05
2022-07-28T06:06:55.748Z,4.60
2022-07-28T06:09:23.150Z,2.83
2022-07-28T06:11:50.703Z,2.20
2022-07-28T06:14:18.810Z,1.52
2022-07-28T06:16:51.139Z,3.25
2022-07-28T06:19:18.750Z,4.28
2022-07-28T06:21:45.981Z,2.25
2022-07-28T06:24:13.393Z,2.38
2022-07-28T06:26:44.346Z,2.60
2022-07-28T06:29:12.287Z,3.92
2022-07-28T06:31:39.536Z,3.97
2022-07-28T06:34:06.962Z,3.97
2022-07-28T06:36:34.241Z,3.47
2022-07-28T06:39:01.572Z,3.03
2022-07-28T06:41:29.041Z,3.00
2022-07-28T06:43:56.309Z,3.53
2022-07-28T06:46:23.497Z,4.05
2022-07-28T06:48:50.876Z,4.68
2022-07-28T06:51:19.930Z,3.92
2022-07-28T06:53:48.632Z,4.80
2022-07-28T07:01:10.450Z,4.32
2022-07-28T07:03:37.691Z,2.78
2022-07-28T07:06:04.936Z,6.40
2022-07-28T07:08:32.250Z,3.03
2022-07-28T07:10:59.520Z,4.53
2022-07-28T07:13:26.852Z,3.78
2022-07-28T07:15:54.085Z,5.63
2022-07-28T07:18:21.245Z,4.35
2022-07-28T07:20:49.021Z,4.82
2022-07-28T07:23:16.238Z,3.83
2022-07-28T07:25:43.427Z,3.03
2022-07-28T07:28:10.539Z,4.95
2022-07-28T07:30:37.639Z,4.32
2022-07-28T07:33:07.053Z,2.83
2022-07-28T07:35:35.251Z,4.47
2022-07-28T07:38:02.515Z,3.95
2022-07-28T07:40:29.669Z,4.47
2022-07-28T07:42:56.843Z,3.60
2022-07-28T07:45:24.066Z,4.47
2022-07-28T07:47:51.248Z,4.38
2022-07-28T07:50:18.413Z,5.57
2022-07-28T07:52:45.607Z,4.72
2022-07-28T07:55:12.704Z,8.50
2022-07-28T07:57:39.924Z,6.03
2022-07-28T08:00:07.363Z,4.18
2022-07-28T08:02:34.524Z,4.85
2022-07-28T08:05:01.924Z,5.78
2022-07-28T08:07:29.079Z,5.43
2022-07-28T08:09:56.254Z,4.95
2022-07-28T08:12:24.992Z,4.80
2022-07-28T08:14:52.685Z,4.75
2022-07-28T08:17:23.599Z,5.32
2022-07-28T08:19:52.896Z,4.80
2022-07-28T08:22:20.101Z,6.35
2022-07-28T08:24:47.296Z,6.68
2022-07-28T08:27:14.447Z,7.13
2022-07-28T08:29:41.644Z,6.47
2022-07-28T08:32:08.791Z,6.70
2022-07-28T08:34:36.749Z,4.43
2022-07-28T08:37:05.131Z,4.47
2022-07-28T08:39:33.329Z,5.63
2022-07-28T08:42:00.558Z,6.00
2022-07-28T08:44:47.181Z,7.57
2022-07-28T08:47:15.707Z,6.95
2022-07-28T08:49:43.300Z,6.38
2022-07-28T08:52:11.549Z,8.40
2022-07-28T08:54:41.756Z,6.68
2022-07-28T08:57:09.763Z,6.35
2022-07-28T08:59:37.502Z,4.93
2022-07-28T09:02:04.760Z,8.85
2022-07-28T09:04:37.055Z,4.82
2022-07-28T09:07:04.711Z,7.85
2022-07-28T09:09:32.478Z,6.53
2022-07-28T09:12:00.393Z,7.35
2022-07-28T09:14:27.528Z,7.85
2022-07-28T09:16:54.736Z,4.25
2022-07-28T09:19:21.866Z,5.25
2022-07-28T09:21:48.960Z,4.57
2022-07-28T09:24:36.474Z,6.88
2022-07-28T09:27:06.870Z,7.82
2022-07-28T09:29:35.291Z,4.72
2022-07-28T09:32:02.778Z,5.82
2022-07-28T09:34:30.043Z,6.15
2022-07-28T09:36:57.684Z,7.72
2022-07-28T09:39:35.015Z,6.00
2022-07-28T09:42:02.477Z,4.68
2022-07-28T09:44:30.526Z,7.13
2022-07-28T09:46:57.842Z,5.43
2022-07-28T09:49:43.635Z,3.83
2022-07-28T09:52:11.942Z,5.28
2022-07-28T09:54:41.279Z,5.10
2022-07-28T09:57:11.746Z,6.95
2022-07-28T09:59:47.100Z,7.15
2022-07-28T10:02:33.840Z,5.57
2022-07-28T10:05:03.583Z,3.60
2022-07-28T10:07:31.352Z,4.10
2022-07-28T10:09:58.488Z,4.80
2022-07-28T10:12:26.788Z,4.25
2022-07-28T10:14:55.343Z,7.20
2022-07-28T10:17:31.494Z,4.85
2022-07-28T10:19:59.920Z,6.03
2022-07-28T10:22:28.690Z,5.10
2022-07-28T10:27:25.799Z,4.05
2022-07-28T10:29:56.020Z,5.38
2022-07-28T10:32:23.457Z,6.60
2022-07-28T10:35:10.730Z,4.82
2022-07-28T10:37:46.327Z,2.90
2022-07-28T10:40:14.084Z,4.10
2022-07-28T10:42:41.367Z,7.18
2022-07-28T10:45:09.972Z,5.28
2022-07-28T10:47:37.147Z,7.70
2022-07-28T10:50:04.928Z,5.28
2022-07-28T10:52:50.482Z,3.78
2022-07-28T10:55:40.877Z,2.90
2022-07-28T10:58:19.629Z,4.32
2022-07-28T11:00:56.703Z,4.50
2022-07-28T11:03:45.572Z,3.15
2022-07-28T11:06:31.118Z,6.07
2022-07-28T11:08:59.512Z,3.58
2022-07-28T11:11:45.400Z,2.78
2022-07-28T11:14:39.485Z,3.47
2022-07-28T11:17:10.380Z,3.80
2022-07-28T11:20:07.185Z,3.70
2022-07-28T11:22:33.636Z,3.58
2022-07-28T11:25:19.332Z,3.47
2022-07-28T11:27:52.369Z,2.65
2022-07-28T11:30:22.551Z,3.58
2022-07-28T11:32:55.513Z,4.55
2022-07-28T11:35:24.398Z,2.70
2022-07-28T11:40:31.133Z,4.20
2022-07-28T11:43:16.965Z,3.40
2022-07-28T11:45:56.217Z,5.30
2022-07-28T11:48:26.397Z,3.25
2022-07-28T11:53:23.902Z,2.90
2022-07-28T11:56:02.448Z,2.00
2022-07-28T11:58:30.581Z,3.50
2022-07-28T12:01:31.867Z,3.95
2022-07-28T12:03:59.696Z,4.75
2022-07-28T12:06:36.666Z,3.03
2022-07-28T12:09:06.280Z,3.75
2022-07-28T12:11:37.275Z,3.15
2022-07-28T12:14:05.838Z,2.80
2022-07-28T12:16:33.950Z,4.68
2022-07-28T12:19:01.959Z,2.17
2022-07-28T12:21:47.864Z,2.05
2022-07-28T12:24:27.963Z,2.60
2022-07-28T12:26:55.629Z,2.25
2022-07-28T12:29:24.113Z,3.97
2022-07-28T12:32:00.322Z,3.55
2022-07-28T12:34:29.133Z,2.55
2022-07-28T12:39:25.987Z,3.50
2022-07-28T12:42:05.274Z,2.35
2022-07-28T12:44:35.400Z,2.38
2022-07-28T12:47:03.067Z,2.35
2022-07-28T12:49:30.255Z,2.08
2022-07-28T12:51:59.157Z,2.63
2022-07-28T12:54:38.594Z,3.72
2022-07-28T12:57:05.975Z,3.60
2022-07-28T12:59:38.211Z,4.43
2022-07-28T13:02:07.863Z,3.55
2022-07-28T13:04:44.730Z,2.72
2022-07-28T13:07:13.700Z,2.33
2022-07-28T13:09:53.207Z,2.63
2022-07-28T13:12:27.814Z,4.03
2022-07-28T13:14:56.826Z,3.17
2022-07-28T13:17:25.435Z,3.50
2022-07-28T13:20:03.236Z,2.60
2022-07-28T13:22:32.847Z,3.38
2022-07-28T13:25:01.100Z,2.65
2022-07-28T13:27:28.923Z,2.80
2022-07-28T13:29:57.582Z,2.92
2022-07-28T13:32:24.846Z,1.90
2022-07-28T13:34:52.303Z,3.92
2022-07-28T13:37:20.160Z,2.72
2022-07-28T13:39:52.205Z,3.30
2022-07-28T13:42:21.371Z,4.32
2022-07-28T13:44:50.852Z,2.60
2022-07-28T13:47:18.690Z,2.50
2022-07-28T13:49:46.776Z,3.72
2022-07-28T13:52:26.380Z,4.53
2022-07-28T13:55:03.966Z,3.70
2022-07-28T13:57:31.405Z,4.65
2022-07-28T14:00:06.604Z,3.58
2022-07-28T14:02:35.228Z,4.38
2022-07-28T14:05:02.632Z,3.40
2022-07-28T14:07:29.836Z,2.35
2022-07-28T14:09:57.033Z,2.35
2022-07-28T14:12:25.001Z,2.22
2022-07-28T14:14:52.160Z,2.50
2022-07-28T14:20:10.703Z,2.30
2022-07-28T14:22:37.930Z,2.45
2022-07-28T14:25:05.220Z,1.67
2022-07-28T14:27:32.632Z,4.32
2022-07-28T14:29:59.757Z,3.33
2022-07-28T14:32:30.861Z,3.05
2022-07-28T14:34:57.991Z,2.95
2022-07-28T14:37:25.581Z,3.72
2022-07-28T14:39:52.736Z,3.30
2022-07-28T14:42:19.900Z,2.45
2022-07-28T14:44:47.067Z,4.65
2022-07-28T14:47:15.325Z,3.47
2022-07-28T14:49:57.966Z,3.20
2022-07-28T14:52:26.681Z,3.78
2022-07-28T14:54:54.543Z,6.50
2022-07-28T14:57:24.986Z,2.95
2022-07-28T15:00:09.996Z,4.05
2022-07-28T15:02:37.304Z,2.00
2022-07-28T15:05:04.904Z,3.47
2022-07-28T15:07:32.108Z,2.58
2022-07-28T15:09:59.305Z,1.92
2022-07-28T15:12:26.492Z,3.17
2022-07-28T15:14:53.655Z,2.92
2022-07-28T15:17:21.028Z,2.60
2022-07-28T15:19:48.284Z,2.92
2022-07-28T15:22:15.435Z,2.40
2022-07-28T15:24:45.717Z,2.97
2022-07-28T15:27:13.308Z,3.05
2022-07-28T15:29:42.855Z,2.85
2022-07-28T15:32:13.018Z,1.98
2022-07-28T15:34:42.175Z,2.55
2022-07-28T15:37:09.278Z,3.10
2022-07-28T15:39:39.594Z,2.55
2022-07-28T15:42:09.219Z,4.28
2022-07-28T15:44:36.396Z,5.38
2022-07-28T15:47:03.860Z,2.20
2022-07-28T15:49:31.154Z,2.95
2022-07-28T15:52:00.756Z,4.70
2022-07-28T15:54:28.160Z,5.93
2022-07-28T15:56:55.530Z,2.45
2022-07-28T15:59:22.663Z,2.97
2022-07-28T16:01:49.847Z,3.05
2022-07-28T16:04:17.436Z,3.70
2022-07-28T16:07:03.287Z,1.75
2022-07-28T16:09:46.122Z,2.70
2022-07-28T16:12:14.268Z,1.52
2022-07-28T16:14:41.869Z,2.30
2022-07-28T16:17:09.927Z,2.85
2022-07-28T16:19:48.994Z,2.30
2022-07-28T16:22:17.807Z,2.28
2022-07-28T16:24:45.081Z,2.00
2022-07-28T16:27:12.192Z,2.13
2022-07-28T16:29:39.396Z,2.67
2022-07-28T16:32:06.626Z,2.13
2022-07-28T16:34:34.470Z,3.30
2022-07-28T16:37:01.715Z,2.35
2022-07-28T16:39:33.005Z,2.30
2022-07-28T16:42:00.186Z,2.30
2022-07-28T16:44:29.004Z,2.92
2022-07-28T16:46:56.348Z,3.53
2022-07-28T16:49:23.874Z,2.25
2022-07-28T16:51:51.312Z,3.30
2022-07-28T16:54:18.947Z,2.13
2022-07-28T16:56:46.480Z,3.25
2022-07-28T16:59:13.735Z,2.55
2022-07-28T17:01:45.966Z,2.90
2022-07-28T17:04:14.864Z,2.58
2022-07-28T17:06:42.554Z,3.67
2022-07-28T17:09:09.706Z,2.55
2022-07-28T17:11:36.948Z,2.53
2022-07-28T17:14:06.672Z,2.67
2022-07-28T17:16:33.870Z,2.72
2022-07-28T17:19:01.237Z,3.10
2022-07-28T17:21:28.429Z,3.95
2022-07-28T17:23:55.600Z,4.68
2022-07-28T17:27:32.380Z,4.13
2022-07-28T17:31:39.033Z,4.53
2022-07-28T17:34:07.316Z,2.15
2022-07-28T17:36:35.588Z,2.35
2022-07-28T17:39:02.801Z,3.25
2022-07-28T17:41:30.607Z,2.95
2022-07-28T17:43:57.765Z,2.60
2022-07-28T17:46:26.753Z,3.38
2022-07-28T17:48:54.168Z,3.45
2022-07-28T17:51:21.919Z,3.78
2022-07-28T17:53:50.291Z,2.05
2022-07-28T17:56:18.463Z,2.25
2022-07-28T17:58:46.085Z,2.38
2022-07-28T18:01:15.145Z,2.67
2022-07-28T18:03:56.557Z,3.15
2022-07-28T18:06:28.314Z,2.40
2022-07-28T18:08:57.830Z,3.70
2022-07-28T18:11:32.479Z,2.60
2022-07-28T18:14:03.623Z,2.35
2022-07-28T18:16:32.487Z,2.70
2022-07-28T18:18:59.682Z,3.92
2022-07-28T18:21:26.917Z,3.35
2022-07-28T18:23:54.925Z,4.03
2022-07-28T18:26:22.369Z,3.65
2022-07-28T18:28:49.749Z,2.70
2022-07-28T18:31:16.972Z,2.42
2022-07-28T18:33:44.443Z,3.25
2022-07-28T18:36:11.591Z,3.05
2022-07-28T18:38:38.814Z,3.72
2022-07-28T18:41:05.925Z,3.30
2022-07-28T18:43:33.172Z,3.28
2022-07-28T18:46:00.377Z,2.50
2022-07-28T18:48:27.736Z,2.05
2022-07-28T18:50:55.655Z,2.53
2022-07-28T18:53:22.852Z,2.08
2022-07-28T18:55:51.086Z,2.72
2022-07-28T18:58:18.279Z,2.67
2022-07-28T19:00:45.487Z,2.67
2022-07-28T19:03:12.653Z,2.50
2022-07-28T19:05:44.075Z,3.40
2022-07-28T19:08:13.012Z,3.08
2022-07-28T19:10:40.205Z,2.67
2022-07-28T19:13:12.330Z,3.03
2022-07-28T19:15:40.599Z,2.50
2022-07-28T19:18:10.555Z,3.95
2022-07-28T19:20:39.142Z,3.33
2022-07-28T19:23:06.359Z,3.30
2022-07-28T19:25:35.873Z,1.73
2022-07-28T19:28:03.394Z,2.53
2022-07-28T19:30:32.274Z,3.45
2022-07-28T19:32:59.646Z,4.75
2022-07-28T19:35:26.783Z,5.32
2022-07-28T19:37:56.389Z,2.15
2022-07-28T19:40:25.533Z,2.10
2022-07-28T19:42:53.471Z,3.08
2022-07-28T19:45:20.640Z,2.13
2022-07-28T19:47:49.874Z,3.92
2022-07-28T19:50:17.313Z,2.50
2022-07-28T19:52:44.543Z,1.55
2022-07-28T19:55:13.883Z,2.13
2022-07-28T19:57:47.793Z,2.25
2022-07-28T20:00:17.424Z,3.22
2022-07-28T20:02:45.880Z,2.92
2022-07-28T20:05:13.359Z,1.88
2022-07-28T20:07:40.510Z,2.13
2022-07-28T20:10:07.943Z,2.90
2022-07-28T20:12:36.898Z,3.72
2022-07-28T20:15:07.831Z,3.25
2022-07-28T20:17:39.069Z,2.13
2022-07-28T20:20:11.578Z,5.57
2022-07-28T20:22:39.057Z,3.10
2022-07-28T20:25:09.411Z,2.58
2022-07-28T20:27:40.377Z,2.80
2022-07-28T20:30:09.716Z,3.35
2022-07-28T20:35:05.160Z,5.13
2022-07-28T20:37:36.453Z,4.95
2022-07-28T20:40:05.715Z,3.85
2022-07-28T20:42:32.935Z,3.83
2022-07-28T20:45:01.611Z,7.90
2022-07-28T20:47:28.787Z,3.60
2022-07-28T20:49:55.925Z,4.82
2022-07-28T20:52:23.498Z,3.92
2022-07-28T20:54:54.186Z,5.15
2022-07-28T20:57:21.936Z,4.70
2022-07-28T20:59:51.065Z,6.18
2022-07-28T21:02:18.981Z,4.90
2022-07-28T21:04:46.186Z,4.57
2022-07-28T21:07:18.108Z,5.60
2022-07-28T21:10:06.125Z,4.55
2022-07-28T21:12:33.877Z,5.95
2022-07-28T21:15:01.057Z,6.05
2022-07-28T21:17:28.156Z,4.95
2022-07-28T21:19:55.636Z,7.90
2022-07-28T21:22:22.940Z,6.03
2022-07-28T21:24:54.740Z,6.05
2022-07-28T21:27:22.800Z,7.03
2022-07-28T21:29:49.971Z,6.13
2022-07-28T21:32:17.132Z,7.03
2022-07-28T21:34:44.297Z,5.85
2022-07-28T21:37:12.995Z,7.30
2022-07-28T21:39:40.608Z,5.75
2022-07-28T21:42:09.102Z,8.45
2022-07-28T21:44:37.466Z,5.38
2022-07-28T21:47:04.840Z,5.97
2022-07-28T21:49:32.403Z,6.15
2022-07-28T21:51:59.987Z,6.07
2022-07-28T21:54:27.221Z,5.43
2022-07-28T21:56:54.418Z,4.55
2022-07-28T21:59:21.550Z,5.05
2022-07-28T22:01:48.897Z,4.10
2022-07-28T22:04:16.623Z,6.32
2022-07-28T22:06:46.587Z,6.80
2022-07-28T22:09:14.429Z,7.18
2022-07-28T22:11:41.800Z,5.20
2022-07-28T22:14:08.927Z,5.22
2022-07-28T22:16:36.280Z,4.45
2022-07-28T22:19:03.809Z,5.88
2022-07-28T22:21:31.010Z,4.00
2022-07-28T22:23:58.135Z,5.10
2022-07-28T22:26:25.385Z,6.50
2022-07-28T22:28:52.542Z,5.25
2022-07-28T22:31:19.798Z,4.43
2022-07-28T22:33:47.041Z,3.95
2022-07-28T22:36:14.223Z,5.85
2022-07-28T22:38:41.347Z,4.30
2022-07-28T22:41:09.648Z,4.78
2022-07-28T22:43:37.440Z,4.45
2022-07-28T22:46:04.797Z,3.22
2022-07-28T22:48:32.035Z,3.40
2022-07-28T22:50:59.160Z,4.47
2022-07-28T22:53:26.342Z,3.60
2022-07-28T22:58:40.092Z,4.13
2022-07-28T23:01:07.609Z,5.32
2022-07-28T23:03:34.977Z,5.18
2022-07-28T23:06:03.493Z,3.00
2022-07-28T23:08:30.739Z,4.95
2022-07-28T23:10:57.947Z,4.35
2022-07-28T23:13:25.192Z,5.50
2022-07-28T23:15:52.390Z,5.07
2022-07-28T23:18:19.648Z,2.80
2022-07-28T23:20:46.870Z,5.05
2022-07-28T23:23:15.305Z,2.90
2022-07-28T23:25:42.987Z,2.70
2022-07-28T23:28:10.642Z,3.72
2022-07-28T23:30:38.128Z,3.45
2022-07-28T23:33:05.940Z,3.97
2022-07-28T23:35:35.584Z,5.18
2022-07-28T23:38:02.824Z,3.00
2022-07-28T23:40:29.985Z,2.90
2022-07-28T23:42:57.409Z,2.88
2022-07-28T23:45:24.782Z,3.30
2022-07-28T23:47:56.457Z,2.72
2022-07-28T23:50:27.616Z,3.88
2022-07-28T23:52:54.907Z,2.92
2022-07-28T23:55:22.868Z,3.58
2022-07-28T23:57:50.044Z,2.75
